CPM5 weather

Volk Airport
Tottenham, Ontario, Canada

Public forecast

Using degrees Celsius for public forecast. Weather courtesy of forecast.io.

METAR (pilot weather report)

Closest report is CFB Borden, 17.7 nm (32.7 km) NNW. Retrieved 2019/01/16 16:51 UTC (10 minutes ago):

CYBN 161651Z AUTO 33018G30KT 300V360 5SM -SN VV012 M07/M11 A3007

TAF (pilot weather forecast)

Closest forecast is CFB Borden, 17.7 nm (32.7 km) NNW. Retrieved 2019/01/16 12:33 UTC (4 hours ago):

TAF TAF CYBN 161130Z 1612/1624 26012KT 3/4SM -SHSN VV003 TEMPO 1612/1616 6SM -SHSN SCT012 OVC030 BECMG 1612/1613 29015G30KT FM161600 29015G30KT P6SM SCT012 OVC030 TEMPO 1616/1619 1SM -SHSN VV008 FM161900 32010G20KT P6SM SCT015 OVC025 TEMPO 1619/1624 3SM -SHSN OVC015 BECMG 1621/1623 32005KT RMK FCST BASED ON AUTO OBS. NXT FCST BY 161800Z